sensor_id;sensor_type;location;lat;lon;timestamp;P1;durP1;ratioP1;P2;durP2;ratioP2
15228;SDS011;7717;47.792;12.076;2023-01-24T00:00:06;29.67;;;18.00;;
15228;SDS011;7717;47.792;12.076;2023-01-24T00:02:36;32.67;;;18.80;;
15228;SDS011;7717;47.792;12.076;2023-01-24T00:05:03;32.23;;;19.33;;
15228;SDS011;7717;47.792;12.076;2023-01-24T00:07:29;31.33;;;18.77;;
15228;SDS011;7717;47.792;12.076;2023-01-24T00:09:54;30.03;;;18.47;;
15228;SDS011;7717;47.792;12.076;2023-01-24T00:12:19;32.53;;;19.53;;
15228;SDS011;7717;47.792;12.076;2023-01-24T00:14:45;34.20;;;19.03;;
15228;SDS011;7717;47.792;12.076;2023-01-24T00:17:10;29.33;;;18.13;;
15228;SDS011;7717;47.792;12.076;2023-01-24T00:19:36;31.97;;;18.10;;
15228;SDS011;7717;47.792;12.076;2023-01-24T00:22:02;29.63;;;17.30;;
15228;SDS011;7717;47.792;12.076;2023-01-24T00:24:28;30.70;;;17.00;;
15228;SDS011;7717;47.792;12.076;2023-01-24T00:26:55;28.43;;;16.17;;
15228;SDS011;7717;47.792;12.076;2023-01-24T00:29:21;30.30;;;17.53;;
15228;SDS011;7717;47.792;12.076;2023-01-24T00:31:46;28.23;;;16.97;;
15228;SDS011;7717;47.792;12.076;2023-01-24T00:34:12;25.23;;;16.53;;
15228;SDS011;7717;47.792;12.076;2023-01-24T00:36:37;30.83;;;16.73;;
15228;SDS011;7717;47.792;12.076;2023-01-24T00:39:03;29.20;;;16.53;;
15228;SDS011;7717;47.792;12.076;2023-01-24T00:41:28;26.70;;;16.93;;
15228;SDS011;7717;47.792;12.076;2023-01-24T00:43:54;25.77;;;16.57;;
15228;SDS011;7717;47.792;12.076;2023-01-24T00:46:19;24.10;;;14.87;;
15228;SDS011;7717;47.792;12.076;2023-01-24T00:48:45;26.00;;;15.50;;
15228;SDS011;7717;47.792;12.076;2023-01-24T00:51:10;28.33;;;16.20;;
15228;SDS011;7717;47.792;12.076;2023-01-24T00:53:36;24.23;;;14.77;;
15228;SDS011;7717;47.792;12.076;2023-01-24T00:56:01;22.67;;;14.10;;
15228;SDS011;7717;47.792;12.076;2023-01-24T00:58:26;25.70;;;15.00;;
15228;SDS011;7717;47.792;12.076;2023-01-24T01:00:55;27.23;;;15.93;;
15228;SDS011;7717;47.792;12.076;2023-01-24T01:03:22;23.23;;;14.63;;
15228;SDS011;7717;47.792;12.076;2023-01-24T01:05:47;21.30;;;14.23;;
15228;SDS011;7717;47.792;12.076;2023-01-24T01:08:12;22.90;;;14.90;;
15228;SDS011;7717;47.792;12.076;2023-01-24T01:10:38;21.53;;;14.27;;
15228;SDS011;7717;47.792;12.076;2023-01-24T01:13:04;21.63;;;12.47;;
15228;SDS011;7717;47.792;12.076;2023-01-24T01:15:30;21.97;;;14.10;;
15228;SDS011;7717;47.792;12.076;2023-01-24T01:21:11;20.33;;;12.83;;
15228;SDS011;7717;47.792;12.076;2023-01-24T01:23:38;14.53;;;10.50;;
15228;SDS011;7717;47.792;12.076;2023-01-24T01:26:05;17.73;;;8.40;;
15228;SDS011;7717;47.792;12.076;2023-01-24T01:28:32;17.57;;;11.53;;
15228;SDS011;7717;47.792;12.076;2023-01-24T01:30:57;19.70;;;11.53;;
15228;SDS011;7717;47.792;12.076;2023-01-24T01:33:23;16.13;;;11.67;;
15228;SDS011;7717;47.792;12.076;2023-01-24T01:35:50;18.00;;;11.73;;
15228;SDS011;7717;47.792;12.076;2023-01-24T01:38:16;16.83;;;11.17;;
15228;SDS011;7717;47.792;12.076;2023-01-24T01:40:42;16.63;;;10.73;;
15228;SDS011;7717;47.792;12.076;2023-01-24T01:43:15;15.13;;;10.30;;
15228;SDS011;7717;47.792;12.076;2023-01-24T01:45:48;14.60;;;9.60;;
15228;SDS011;7717;47.792;12.076;2023-01-24T01:53:31;19.90;;;11.63;;
15228;SDS011;7717;47.792;12.076;2023-01-24T01:56:08;16.77;;;11.53;;
15228;SDS011;7717;47.792;12.076;2023-01-24T01:58:40;15.30;;;10.90;;
15228;SDS011;7717;47.792;12.076;2023-01-24T02:01:06;12.57;;;9.87;;
15228;SDS011;7717;47.792;12.076;2023-01-24T02:03:35;17.03;;;11.03;;
15228;SDS011;7717;47.792;12.076;2023-01-24T02:07:08;15.83;;;10.70;;
15228;SDS011;7717;47.792;12.076;2023-01-24T02:09:16;17.73;;;11.47;;
15228;SDS011;7717;47.792;12.076;2023-01-24T02:11:46;16.43;;;12.27;;
15228;SDS011;7717;47.792;12.076;2023-01-24T02:14:12;17.43;;;10.77;;
15228;SDS011;7717;47.792;12.076;2023-01-24T02:17:01;14.17;;;9.97;;
15228;SDS011;7717;47.792;12.076;2023-01-24T02:19:29;14.07;;;10.03;;
15228;SDS011;7717;47.792;12.076;2023-01-24T02:22:02;15.60;;;10.83;;
15228;SDS011;7717;47.792;12.076;2023-01-24T02:24:42;16.27;;;11.07;;
15228;SDS011;7717;47.792;12.076;2023-01-24T02:27:14;17.03;;;10.83;;
15228;SDS011;7717;47.792;12.076;2023-01-24T02:29:39;14.40;;;10.30;;
15228;SDS011;7717;47.792;12.076;2023-01-24T02:32:06;16.93;;;10.87;;
15228;SDS011;7717;47.792;12.076;2023-01-24T02:34:33;16.43;;;11.07;;
15228;SDS011;7717;47.792;12.076;2023-01-24T02:37:00;18.47;;;11.40;;
15228;SDS011;7717;47.792;12.076;2023-01-24T02:39:29;16.97;;;10.73;;
15228;SDS011;7717;47.792;12.076;2023-01-24T02:42:01;17.13;;;10.17;;
15228;SDS011;7717;47.792;12.076;2023-01-24T02:47:22;17.23;;;10.43;;
15228;SDS011;7717;47.792;12.076;2023-01-24T02:49:51;7.67;;;4.90;;
15228;SDS011;7717;47.792;12.076;2023-01-24T02:52:16;17.27;;;11.13;;
15228;SDS011;7717;47.792;12.076;2023-01-24T02:55:00;14.63;;;9.73;;
15228;SDS011;7717;47.792;12.076;2023-01-24T02:57:29;13.67;;;8.80;;
15228;SDS011;7717;47.792;12.076;2023-01-24T03:00:13;14.60;;;10.30;;
15228;SDS011;7717;47.792;12.076;2023-01-24T03:02:38;15.93;;;9.97;;
15228;SDS011;7717;47.792;12.076;2023-01-24T03:05:04;14.40;;;10.33;;
15228;SDS011;7717;47.792;12.076;2023-01-24T03:07:29;15.67;;;10.47;;
15228;SDS011;7717;47.792;12.076;2023-01-24T03:10:07;17.80;;;11.07;;
15228;SDS011;7717;47.792;12.076;2023-01-24T03:12:34;16.47;;;9.87;;
15228;SDS011;7717;47.792;12.076;2023-01-24T03:15:18;14.97;;;9.43;;
15228;SDS011;7717;47.792;12.076;2023-01-24T03:18:02;16.73;;;10.53;;
15228;SDS011;7717;47.792;12.076;2023-01-24T03:20:47;10.90;;;8.20;;
15228;SDS011;7717;47.792;12.076;2023-01-24T03:23:31;17.30;;;10.60;;
15228;SDS011;7717;47.792;12.076;2023-01-24T03:26:15;12.80;;;7.73;;
15228;SDS011;7717;47.792;12.076;2023-01-24T03:28:59;19.00;;;10.57;;
15228;SDS011;7717;47.792;12.076;2023-01-24T03:31:43;15.57;;;10.03;;
15228;SDS011;7717;47.792;12.076;2023-01-24T03:34:27;12.73;;;9.40;;
15228;SDS011;7717;47.792;12.076;2023-01-24T03:36:59;14.70;;;9.00;;
15228;SDS011;7717;47.792;12.076;2023-01-24T03:39:25;14.77;;;9.70;;
15228;SDS011;7717;47.792;12.076;2023-01-24T03:42:09;15.10;;;9.70;;
15228;SDS011;7717;47.792;12.076;2023-01-24T03:44:34;16.67;;;11.90;;
15228;SDS011;7717;47.792;12.076;2023-01-24T03:47:00;15.87;;;11.03;;
15228;SDS011;7717;47.792;12.076;2023-01-24T03:49:25;14.73;;;10.93;;
15228;SDS011;7717;47.792;12.076;2023-01-24T03:52:09;14.67;;;10.43;;
15228;SDS011;7717;47.792;12.076;2023-01-24T03:54:49;18.80;;;12.00;;
15228;SDS011;7717;47.792;12.076;2023-01-24T03:57:15;16.30;;;11.60;;
15228;SDS011;7717;47.792;12.076;2023-01-24T03:59:40;17.13;;;11.53;;
15228;SDS011;7717;47.792;12.076;2023-01-24T04:02:05;18.40;;;11.20;;
15228;SDS011;7717;47.792;12.076;2023-01-24T04:04:30;18.33;;;11.93;;
15228;SDS011;7717;47.792;12.076;2023-01-24T04:07:16;16.77;;;11.37;;
15228;SDS011;7717;47.792;12.076;2023-01-24T04:09:41;15.33;;;10.53;;
15228;SDS011;7717;47.792;12.076;2023-01-24T04:12:07;18.40;;;11.70;;
15228;SDS011;7717;47.792;12.076;2023-01-24T04:14:32;21.03;;;14.33;;
15228;SDS011;7717;47.792;12.076;2023-01-24T04:16:57;15.67;;;11.00;;
15228;SDS011;7717;47.792;12.076;2023-01-24T04:19:22;16.90;;;11.90;;
15228;SDS011;7717;47.792;12.076;2023-01-24T04:21:48;15.87;;;11.93;;
15228;SDS011;7717;47.792;12.076;2023-01-24T04:24:13;20.97;;;12.33;;
15228;SDS011;7717;47.792;12.076;2023-01-24T04:26:38;19.90;;;13.00;;
15228;SDS011;7717;47.792;12.076;2023-01-24T04:29:04;18.27;;;12.13;;
15228;SDS011;7717;47.792;12.076;2023-01-24T04:31:29;19.00;;;10.60;;
15228;SDS011;7717;47.792;12.076;2023-01-24T04:33:54;16.80;;;10.93;;
15228;SDS011;7717;47.792;12.076;2023-01-24T04:36:20;18.20;;;12.07;;
15228;SDS011;7717;47.792;12.076;2023-01-24T04:38:45;15.83;;;11.33;;
15228;SDS011;7717;47.792;12.076;2023-01-24T04:41:11;16.63;;;9.57;;
15228;SDS011;7717;47.792;12.076;2023-01-24T04:43:39;16.60;;;11.83;;
15228;SDS011;7717;47.792;12.076;2023-01-24T04:46:05;16.30;;;11.13;;
15228;SDS011;7717;47.792;12.076;2023-01-24T04:48:30;16.63;;;10.73;;
15228;SDS011;7717;47.792;12.076;2023-01-24T04:50:59;15.50;;;11.07;;
15228;SDS011;7717;47.792;12.076;2023-01-24T04:53:25;59.37;;;28.30;;
15228;SDS011;7717;47.792;12.076;2023-01-24T04:55:51;18.83;;;12.27;;
15228;SDS011;7717;47.792;12.076;2023-01-24T04:58:16;20.47;;;12.90;;
15228;SDS011;7717;47.792;12.076;2023-01-24T05:00:41;19.30;;;13.83;;
15228;SDS011;7717;47.792;12.076;2023-01-24T05:03:07;10.47;;;7.83;;
15228;SDS011;7717;47.792;12.076;2023-01-24T05:05:32;20.83;;;13.27;;
15228;SDS011;7717;47.792;12.076;2023-01-24T05:07:58;20.13;;;12.63;;
15228;SDS011;7717;47.792;12.076;2023-01-24T05:10:23;14.40;;;10.57;;
15228;SDS011;7717;47.792;12.076;2023-01-24T05:12:49;18.47;;;12.70;;
15228;SDS011;7717;47.792;12.076;2023-01-24T05:15:14;15.90;;;11.27;;
15228;SDS011;7717;47.792;12.076;2023-01-24T05:17:42;19.27;;;13.40;;
15228;SDS011;7717;47.792;12.076;2023-01-24T05:20:09;15.73;;;10.47;;
15228;SDS011;7717;47.792;12.076;2023-01-24T05:22:35;18.53;;;12.27;;
15228;SDS011;7717;47.792;12.076;2023-01-24T05:25:00;18.77;;;11.50;;
15228;SDS011;7717;47.792;12.076;2023-01-24T05:27:25;20.33;;;13.00;;
15228;SDS011;7717;47.792;12.076;2023-01-24T05:29:51;15.63;;;11.93;;
15228;SDS011;7717;47.792;12.076;2023-01-24T05:32:16;17.13;;;12.30;;
15228;SDS011;7717;47.792;12.076;2023-01-24T05:34:41;16.60;;;12.17;;
15228;SDS011;7717;47.792;12.076;2023-01-24T05:37:07;14.97;;;10.37;;
15228;SDS011;7717;47.792;12.076;2023-01-24T05:39:32;18.70;;;12.80;;
15228;SDS011;7717;47.792;12.076;2023-01-24T05:41:58;18.23;;;11.93;;
15228;SDS011;7717;47.792;12.076;2023-01-24T05:44:23;14.53;;;8.47;;
15228;SDS011;7717;47.792;12.076;2023-01-24T05:46:48;17.33;;;11.23;;
15228;SDS011;7717;47.792;12.076;2023-01-24T05:49:14;17.93;;;11.33;;
15228;SDS011;7717;47.792;12.076;2023-01-24T05:51:39;19.97;;;12.60;;
15228;SDS011;7717;47.792;12.076;2023-01-24T05:54:04;18.90;;;12.60;;
15228;SDS011;7717;47.792;12.076;2023-01-24T05:56:30;17.37;;;12.03;;
15228;SDS011;7717;47.792;12.076;2023-01-24T05:58:55;15.53;;;9.43;;
15228;SDS011;7717;47.792;12.076;2023-01-24T06:01:22;18.43;;;13.17;;
15228;SDS011;7717;47.792;12.076;2023-01-24T06:03:49;21.57;;;12.77;;
15228;SDS011;7717;47.792;12.076;2023-01-24T06:06:16;13.73;;;8.43;;
15228;SDS011;7717;47.792;12.076;2023-01-24T06:08:43;19.83;;;13.13;;
15228;SDS011;7717;47.792;12.076;2023-01-24T06:11:11;21.57;;;12.63;;
15228;SDS011;7717;47.792;12.076;2023-01-24T06:13:42;20.00;;;14.53;;
15228;SDS011;7717;47.792;12.076;2023-01-24T06:16:12;20.37;;;13.57;;
15228;SDS011;7717;47.792;12.076;2023-01-24T06:18:39;16.07;;;11.63;;
15228;SDS011;7717;47.792;12.076;2023-01-24T06:21:10;16.27;;;11.03;;
15228;SDS011;7717;47.792;12.076;2023-01-24T06:23:39;19.10;;;11.97;;
15228;SDS011;7717;47.792;12.076;2023-01-24T06:26:06;11.10;;;7.80;;
15228;SDS011;7717;47.792;12.076;2023-01-24T06:28:34;32.93;;;18.37;;
15228;SDS011;7717;47.792;12.076;2023-01-24T06:31:02;26.10;;;16.90;;
15228;SDS011;7717;47.792;12.076;2023-01-24T06:36:16;39.50;;;24.73;;
15228;SDS011;7717;47.792;12.076;2023-01-24T06:38:50;21.33;;;13.83;;
15228;SDS011;7717;47.792;12.076;2023-01-24T06:41:15;21.87;;;15.67;;
15228;SDS011;7717;47.792;12.076;2023-01-24T06:43:44;20.47;;;13.57;;
15228;SDS011;7717;47.792;12.076;2023-01-24T06:46:11;21.83;;;14.87;;
15228;SDS011;7717;47.792;12.076;2023-01-24T06:48:41;13.57;;;9.53;;
15228;SDS011;7717;47.792;12.076;2023-01-24T06:51:09;18.60;;;12.13;;
15228;SDS011;7717;47.792;12.076;2023-01-24T06:53:37;23.27;;;12.60;;
15228;SDS011;7717;47.792;12.076;2023-01-24T06:56:02;21.23;;;13.60;;
15228;SDS011;7717;47.792;12.076;2023-01-24T06:58:27;27.03;;;17.13;;
15228;SDS011;7717;47.792;12.076;2023-01-24T07:00:53;22.67;;;13.73;;
15228;SDS011;7717;47.792;12.076;2023-01-24T07:03:18;21.00;;;13.07;;
15228;SDS011;7717;47.792;12.076;2023-01-24T07:05:44;15.40;;;9.10;;
15228;SDS011;7717;47.792;12.076;2023-01-24T07:08:09;20.03;;;11.83;;
15228;SDS011;7717;47.792;12.076;2023-01-24T07:10:35;18.57;;;12.37;;
15228;SDS011;7717;47.792;12.076;2023-01-24T07:13:00;20.40;;;12.80;;
15228;SDS011;7717;47.792;12.076;2023-01-24T07:15:26;18.03;;;12.27;;
15228;SDS011;7717;47.792;12.076;2023-01-24T07:17:51;15.80;;;10.20;;
15228;SDS011;7717;47.792;12.076;2023-01-24T07:20:17;17.40;;;11.10;;
15228;SDS011;7717;47.792;12.076;2023-01-24T07:22:43;19.17;;;12.97;;
15228;SDS011;7717;47.792;12.076;2023-01-24T07:27:41;18.70;;;12.77;;
15228;SDS011;7717;47.792;12.076;2023-01-24T07:30:08;20.90;;;13.43;;
15228;SDS011;7717;47.792;12.076;2023-01-24T07:32:34;18.00;;;12.50;;
15228;SDS011;7717;47.792;12.076;2023-01-24T07:35:00;10.10;;;7.50;;
15228;SDS011;7717;47.792;12.076;2023-01-24T07:37:25;16.00;;;11.63;;
15228;SDS011;7717;47.792;12.076;2023-01-24T07:39:50;19.73;;;13.53;;
15228;SDS011;7717;47.792;12.076;2023-01-24T07:42:16;10.90;;;7.13;;
15228;SDS011;7717;47.792;12.076;2023-01-24T07:44:41;18.77;;;11.23;;
15228;SDS011;7717;47.792;12.076;2023-01-24T07:47:06;16.20;;;9.57;;
15228;SDS011;7717;47.792;12.076;2023-01-24T07:49:32;17.63;;;11.50;;
15228;SDS011;7717;47.792;12.076;2023-01-24T07:51:57;15.70;;;10.47;;
15228;SDS011;7717;47.792;12.076;2023-01-24T07:54:23;20.90;;;12.73;;
15228;SDS011;7717;47.792;12.076;2023-01-24T07:56:48;9.53;;;6.83;;
15228;SDS011;7717;47.792;12.076;2023-01-24T07:59:13;19.03;;;12.23;;
15228;SDS011;7717;47.792;12.076;2023-01-24T08:01:39;15.43;;;11.03;;
15228;SDS011;7717;47.792;12.076;2023-01-24T08:04:05;12.83;;;8.07;;
15228;SDS011;7717;47.792;12.076;2023-01-24T08:06:30;15.60;;;11.03;;
15228;SDS011;7717;47.792;12.076;2023-01-24T08:08:56;16.30;;;10.47;;
15228;SDS011;7717;47.792;12.076;2023-01-24T08:11:21;16.43;;;11.97;;
15228;SDS011;7717;47.792;12.076;2023-01-24T08:13:47;18.27;;;11.07;;
15228;SDS011;7717;47.792;12.076;2023-01-24T08:16:12;20.53;;;13.07;;
15228;SDS011;7717;47.792;12.076;2023-01-24T08:18:38;13.70;;;10.27;;
15228;SDS011;7717;47.792;12.076;2023-01-24T08:21:05;18.00;;;11.27;;
15228;SDS011;7717;47.792;12.076;2023-01-24T08:23:31;18.40;;;12.47;;
15228;SDS011;7717;47.792;12.076;2023-01-24T08:25:57;19.10;;;12.90;;
15228;SDS011;7717;47.792;12.076;2023-01-24T08:28:23;17.50;;;11.43;;
15228;SDS011;7717;47.792;12.076;2023-01-24T08:30:48;21.93;;;13.90;;
15228;SDS011;7717;47.792;12.076;2023-01-24T08:33:13;19.47;;;13.30;;
15228;SDS011;7717;47.792;12.076;2023-01-24T08:35:43;18.20;;;11.27;;
15228;SDS011;7717;47.792;12.076;2023-01-24T08:38:13;20.17;;;13.10;;
15228;SDS011;7717;47.792;12.076;2023-01-24T08:40:39;18.90;;;13.33;;
15228;SDS011;7717;47.792;12.076;2023-01-24T08:43:04;30.30;;;17.47;;
15228;SDS011;7717;47.792;12.076;2023-01-24T08:45:33;17.57;;;10.30;;
15228;SDS011;7717;47.792;12.076;2023-01-24T08:47:58;19.50;;;11.77;;
15228;SDS011;7717;47.792;12.076;2023-01-24T08:50:24;19.27;;;14.07;;
15228;SDS011;7717;47.792;12.076;2023-01-24T08:52:53;14.07;;;8.57;;
15228;SDS011;7717;47.792;12.076;2023-01-24T08:55:19;18.10;;;12.70;;
15228;SDS011;7717;47.792;12.076;2023-01-24T08:57:45;9.37;;;6.10;;
15228;SDS011;7717;47.792;12.076;2023-01-24T09:00:10;18.60;;;11.77;;
15228;SDS011;7717;47.792;12.076;2023-01-24T09:02:37;19.93;;;14.20;;
15228;SDS011;7717;47.792;12.076;2023-01-24T09:05:04;19.10;;;13.20;;
15228;SDS011;7717;47.792;12.076;2023-01-24T09:07:30;22.57;;;13.10;;
15228;SDS011;7717;47.792;12.076;2023-01-24T09:09:56;19.10;;;12.77;;
15228;SDS011;7717;47.792;12.076;2023-01-24T09:12:21;15.40;;;10.50;;
15228;SDS011;7717;47.792;12.076;2023-01-24T09:14:46;21.17;;;13.23;;
15228;SDS011;7717;47.792;12.076;2023-01-24T09:17:11;19.73;;;13.40;;
15228;SDS011;7717;47.792;12.076;2023-01-24T09:19:37;17.43;;;12.30;;
15228;SDS011;7717;47.792;12.076;2023-01-24T09:22:02;15.23;;;10.87;;
15228;SDS011;7717;47.792;12.076;2023-01-24T09:24:28;16.43;;;10.47;;
15228;SDS011;7717;47.792;12.076;2023-01-24T09:26:54;17.60;;;10.90;;
15228;SDS011;7717;47.792;12.076;2023-01-24T09:29:19;18.37;;;12.60;;
15228;SDS011;7717;47.792;12.076;2023-01-24T09:31:46;17.23;;;11.57;;
15228;SDS011;7717;47.792;12.076;2023-01-24T09:34:12;14.53;;;11.20;;
15228;SDS011;7717;47.792;12.076;2023-01-24T09:36:38;18.97;;;12.63;;
15228;SDS011;7717;47.792;12.076;2023-01-24T09:39:04;16.20;;;11.87;;
15228;SDS011;7717;47.792;12.076;2023-01-24T09:44:13;15.10;;;12.00;;
15228;SDS011;7717;47.792;12.076;2023-01-24T09:46:48;19.60;;;12.63;;
15228;SDS011;7717;47.792;12.076;2023-01-24T09:49:17;19.37;;;12.77;;
15228;SDS011;7717;47.792;12.076;2023-01-24T09:52:04;17.50;;;13.07;;
15228;SDS011;7717;47.792;12.076;2023-01-24T09:54:43;17.90;;;12.33;;
15228;SDS011;7717;47.792;12.076;2023-01-24T10:00:16;16.97;;;11.47;;
15228;SDS011;7717;47.792;12.076;2023-01-24T10:02:49;17.30;;;12.43;;
15228;SDS011;7717;47.792;12.076;2023-01-24T10:05:15;14.80;;;10.97;;
15228;SDS011;7717;47.792;12.076;2023-01-24T10:12:51;18.00;;;11.53;;
15228;SDS011;7717;47.792;12.076;2023-01-24T10:15:30;17.23;;;12.17;;
15228;SDS011;7717;47.792;12.076;2023-01-24T10:18:05;15.77;;;12.43;;
15228;SDS011;7717;47.792;12.076;2023-01-24T10:21:02;20.63;;;11.63;;
15228;SDS011;7717;47.792;12.076;2023-01-24T10:23:35;13.57;;;10.63;;
15228;SDS011;7717;47.792;12.076;2023-01-24T10:26:50;13.00;;;9.67;;
15228;SDS011;7717;47.792;12.076;2023-01-24T10:28:56;13.07;;;10.37;;
15228;SDS011;7717;47.792;12.076;2023-01-24T10:31:35;12.53;;;10.30;;
15228;SDS011;7717;47.792;12.076;2023-01-24T10:34:25;19.07;;;11.60;;
15228;SDS011;7717;47.792;12.076;2023-01-24T10:36:58;12.17;;;9.13;;
15228;SDS011;7717;47.792;12.076;2023-01-24T10:39:30;16.07;;;12.53;;
15228;SDS011;7717;47.792;12.076;2023-01-24T10:41:56;14.57;;;11.63;;
15228;SDS011;7717;47.792;12.076;2023-01-24T10:44:29;13.83;;;10.27;;
15228;SDS011;7717;47.792;12.076;2023-01-24T10:49:28;13.07;;;9.67;;
15228;SDS011;7717;47.792;12.076;2023-01-24T10:52:10;16.00;;;11.13;;
15228;SDS011;7717;47.792;12.076;2023-01-24T10:54:47;12.57;;;9.00;;
15228;SDS011;7717;47.792;12.076;2023-01-24T11:00:45;15.07;;;11.07;;
15228;SDS011;7717;47.792;12.076;2023-01-24T11:02:56;11.67;;;8.87;;
15228;SDS011;7717;47.792;12.076;2023-01-24T11:05:23;14.50;;;10.77;;
15228;SDS011;7717;47.792;12.076;2023-01-24T11:07:52;12.10;;;10.43;;
15228;SDS011;7717;47.792;12.076;2023-01-24T11:10:24;12.57;;;10.93;;
15228;SDS011;7717;47.792;12.076;2023-01-24T11:15:29;15.10;;;11.13;;
15228;SDS011;7717;47.792;12.076;2023-01-24T11:17:59;12.77;;;10.60;;
15228;SDS011;7717;47.792;12.076;2023-01-24T11:20:32;12.43;;;10.60;;
15228;SDS011;7717;47.792;12.076;2023-01-24T11:23:22;13.27;;;10.63;;
15228;SDS011;7717;47.792;12.076;2023-01-24T11:25:56;13.07;;;10.33;;
15228;SDS011;7717;47.792;12.076;2023-01-24T11:28:27;13.23;;;11.00;;
15228;SDS011;7717;47.792;12.076;2023-01-24T11:30:55;13.87;;;10.43;;
15228;SDS011;7717;47.792;12.076;2023-01-24T11:38:27;13.53;;;10.67;;
15228;SDS011;7717;47.792;12.076;2023-01-24T11:51:27;25.83;;;17.07;;
15228;SDS011;7717;47.792;12.076;2023-01-24T11:54:12;24.77;;;16.50;;
15228;SDS011;7717;47.792;12.076;2023-01-24T11:59:22;14.47;;;12.73;;
15228;SDS011;7717;47.792;12.076;2023-01-24T12:02:09;12.45;;;11.15;;
15228;SDS011;7717;47.792;12.076;2023-01-24T12:10:38;13.10;;;11.20;;
15228;SDS011;7717;47.792;12.076;2023-01-24T12:21:18;13.50;;;10.53;;
15228;SDS011;7717;47.792;12.076;2023-01-24T12:26:17;14.13;;;11.13;;
15228;SDS011;7717;47.792;12.076;2023-01-24T12:28:48;12.93;;;10.43;;
15228;SDS011;7717;47.792;12.076;2023-01-24T12:31:22;15.27;;;11.60;;
15228;SDS011;7717;47.792;12.076;2023-01-24T12:36:37;13.83;;;10.83;;
15228;SDS011;7717;47.792;12.076;2023-01-24T12:39:15;17.30;;;11.27;;
15228;SDS011;7717;47.792;12.076;2023-01-24T12:41:47;17.07;;;11.47;;
15228;SDS011;7717;47.792;12.076;2023-01-24T12:44:30;15.57;;;12.57;;
15228;SDS011;7717;47.792;12.076;2023-01-24T12:52:57;14.93;;;11.47;;
15228;SDS011;7717;47.792;12.076;2023-01-24T12:55:42;14.43;;;10.87;;
15228;SDS011;7717;47.792;12.076;2023-01-24T13:00:58;16.17;;;11.50;;
15228;SDS011;7717;47.792;12.076;2023-01-24T13:03:34;16.33;;;12.17;;
15228;SDS011;7717;47.792;12.076;2023-01-24T13:11:20;18.63;;;13.03;;
15228;SDS011;7717;47.792;12.076;2023-01-24T13:16:32;16.57;;;12.23;;
15228;SDS011;7717;47.792;12.076;2023-01-24T13:19:26;19.63;;;13.57;;
15228;SDS011;7717;47.792;12.076;2023-01-24T13:22:22;18.13;;;14.57;;
15228;SDS011;7717;47.792;12.076;2023-01-24T13:31:42;13.13;;;11.20;;
15228;SDS011;7717;47.792;12.076;2023-01-24T13:34:13;14.00;;;11.20;;
15228;SDS011;7717;47.792;12.076;2023-01-24T13:36:41;15.97;;;12.17;;
15228;SDS011;7717;47.792;12.076;2023-01-24T13:39:26;16.73;;;11.60;;
15228;SDS011;7717;47.792;12.076;2023-01-24T13:42:05;13.80;;;11.13;;
15228;SDS011;7717;47.792;12.076;2023-01-24T13:44:42;15.00;;;11.53;;
15228;SDS011;7717;47.792;12.076;2023-01-24T13:55:02;14.27;;;11.63;;
15228;SDS011;7717;47.792;12.076;2023-01-24T13:57:47;16.20;;;12.30;;
15228;SDS011;7717;47.792;12.076;2023-01-24T14:00:15;13.67;;;10.50;;
15228;SDS011;7717;47.792;12.076;2023-01-24T14:08:05;21.20;;;14.60;;
15228;SDS011;7717;47.792;12.076;2023-01-24T14:10:39;20.90;;;14.33;;
15228;SDS011;7717;47.792;12.076;2023-01-24T14:18:49;18.13;;;14.57;;
15228;SDS011;7717;47.792;12.076;2023-01-24T14:21:20;19.63;;;13.30;;
15228;SDS011;7717;47.792;12.076;2023-01-24T14:23:53;17.10;;;12.93;;
15228;SDS011;7717;47.792;12.076;2023-01-24T14:26:22;19.83;;;13.80;;
15228;SDS011;7717;47.792;12.076;2023-01-24T14:28:55;21.83;;;14.87;;
15228;SDS011;7717;47.792;12.076;2023-01-24T14:31:25;19.93;;;14.23;;
15228;SDS011;7717;47.792;12.076;2023-01-24T14:37:12;17.63;;;13.57;;
15228;SDS011;7717;47.792;12.076;2023-01-24T14:39:41;18.23;;;13.37;;
15228;SDS011;7717;47.792;12.076;2023-01-24T14:42:10;21.57;;;13.97;;
15228;SDS011;7717;47.792;12.076;2023-01-24T14:44:38;23.83;;;14.80;;
15228;SDS011;7717;47.792;12.076;2023-01-24T14:49:53;22.60;;;14.57;;
15228;SDS011;7717;47.792;12.076;2023-01-24T14:52:25;19.73;;;14.00;;
15228;SDS011;7717;47.792;12.076;2023-01-24T14:54:54;20.70;;;14.13;;
15228;SDS011;7717;47.792;12.076;2023-01-24T14:57:41;19.50;;;13.77;;
15228;SDS011;7717;47.792;12.076;2023-01-24T15:02:38;21.03;;;14.63;;
15228;SDS011;7717;47.792;12.076;2023-01-24T15:05:26;18.90;;;13.90;;
15228;SDS011;7717;47.792;12.076;2023-01-24T15:08:02;20.50;;;14.67;;
15228;SDS011;7717;47.792;12.076;2023-01-24T15:10:33;19.73;;;13.77;;
15228;SDS011;7717;47.792;12.076;2023-01-24T15:13:02;22.67;;;14.93;;
15228;SDS011;7717;47.792;12.076;2023-01-24T15:15:33;26.17;;;14.97;;
15228;SDS011;7717;47.792;12.076;2023-01-24T15:18:06;21.00;;;14.90;;
15228;SDS011;7717;47.792;12.076;2023-01-24T15:20:47;20.50;;;14.63;;
15228;SDS011;7717;47.792;12.076;2023-01-24T15:23:13;21.07;;;14.87;;
15228;SDS011;7717;47.792;12.076;2023-01-24T15:25:44;23.77;;;14.33;;
15228;SDS011;7717;47.792;12.076;2023-01-24T15:28:16;23.33;;;16.33;;
15228;SDS011;7717;47.792;12.076;2023-01-24T15:31:16;26.23;;;15.83;;
15228;SDS011;7717;47.792;12.076;2023-01-24T15:33:44;25.90;;;16.07;;
15228;SDS011;7717;47.792;12.076;2023-01-24T15:36:26;29.20;;;15.87;;
15228;SDS011;7717;47.792;12.076;2023-01-24T15:38:56;20.30;;;14.07;;
15228;SDS011;7717;47.792;12.076;2023-01-24T15:49:24;25.33;;;17.67;;
15228;SDS011;7717;47.792;12.076;2023-01-24T15:52:15;23.93;;;16.23;;
15228;SDS011;7717;47.792;12.076;2023-01-24T15:54:43;25.03;;;17.03;;
15228;SDS011;7717;47.792;12.076;2023-01-24T16:02:33;23.97;;;16.80;;
15228;SDS011;7717;47.792;12.076;2023-01-24T16:04:59;23.43;;;17.70;;
15228;SDS011;7717;47.792;12.076;2023-01-24T16:07:25;24.50;;;17.20;;
15228;SDS011;7717;47.792;12.076;2023-01-24T16:09:51;26.73;;;17.63;;
15228;SDS011;7717;47.792;12.076;2023-01-24T16:12:20;30.13;;;20.20;;
15228;SDS011;7717;47.792;12.076;2023-01-24T16:14:50;27.43;;;18.37;;
15228;SDS011;7717;47.792;12.076;2023-01-24T16:17:21;30.23;;;17.37;;
15228;SDS011;7717;47.792;12.076;2023-01-24T16:19:48;28.90;;;20.30;;
15228;SDS011;7717;47.792;12.076;2023-01-24T16:22:13;32.87;;;20.57;;
15228;SDS011;7717;47.792;12.076;2023-01-24T16:24:40;29.07;;;19.60;;
15228;SDS011;7717;47.792;12.076;2023-01-24T16:27:08;42.67;;;26.67;;
15228;SDS011;7717;47.792;12.076;2023-01-24T16:29:36;47.57;;;27.73;;
15228;SDS011;7717;47.792;12.076;2023-01-24T16:32:01;32.40;;;20.73;;
15228;SDS011;7717;47.792;12.076;2023-01-24T16:34:26;33.60;;;22.17;;
15228;SDS011;7717;47.792;12.076;2023-01-24T16:36:52;27.27;;;19.10;;
15228;SDS011;7717;47.792;12.076;2023-01-24T16:39:18;26.10;;;18.10;;
15228;SDS011;7717;47.792;12.076;2023-01-24T16:41:46;27.20;;;17.97;;
15228;SDS011;7717;47.792;12.076;2023-01-24T16:44:12;27.67;;;16.73;;
15228;SDS011;7717;47.792;12.076;2023-01-24T16:46:38;24.17;;;17.47;;
15228;SDS011;7717;47.792;12.076;2023-01-24T16:49:04;24.13;;;16.17;;
15228;SDS011;7717;47.792;12.076;2023-01-24T16:51:30;24.80;;;17.43;;
15228;SDS011;7717;47.792;12.076;2023-01-24T16:53:55;34.67;;;20.33;;